sensor_id;sensor_type;location;lat;lon;timestamp;pressure;altitude;pressure_sealevel;temperature
70969;BMP280;58630;43.022;25.100;2022-09-29T00:00:47;98407.56;;;22.55
70969;BMP280;58630;43.022;25.100;2022-09-29T00:03:12;98401.88;;;22.53
70969;BMP280;58630;43.022;25.100;2022-09-29T00:05:37;98404.53;;;22.53
70969;BMP280;58630;43.022;25.100;2022-09-29T00:08:03;98407.88;;;22.50
70969;BMP280;58630;43.022;25.100;2022-09-29T00:10:28;98409.03;;;22.49
70969;BMP280;58630;43.022;25.100;2022-09-29T00:12:53;98402.97;;;22.49
70969;BMP280;58630;43.022;25.100;2022-09-29T00:15:18;98391.97;;;22.47
70969;BMP280;58630;43.022;25.100;2022-09-29T00:17:44;98387.84;;;22.46
70969;BMP280;58630;43.022;25.100;2022-09-29T00:20:09;98388.53;;;22.43
70969;BMP280;58630;43.022;25.100;2022-09-29T00:22:34;98388.88;;;22.41
70969;BMP280;58630;43.022;25.100;2022-09-29T00:24:59;98389.25;;;22.40
70969;BMP280;58630;43.022;25.100;2022-09-29T00:27:25;98387.72;;;22.39
70969;BMP280;58630;43.022;25.100;2022-09-29T00:29:50;98391.50;;;22.38
70969;BMP280;58630;43.022;25.100;2022-09-29T00:32:15;98397.91;;;22.37
70969;BMP280;58630;43.022;25.100;2022-09-29T00:34:41;98391.06;;;22.32
70969;BMP280;58630;43.022;25.100;2022-09-29T00:37:06;98395.25;;;22.33
70969;BMP280;58630;43.022;25.100;2022-09-29T00:39:31;98386.88;;;22.31
70969;BMP280;58630;43.022;25.100;2022-09-29T00:41:57;98383.84;;;22.29
70969;BMP280;58630;43.022;25.100;2022-09-29T00:46:52;98389.09;;;22.26
70969;BMP280;58630;43.022;25.100;2022-09-29T00:49:23;98398.16;;;22.25
70969;BMP280;58630;43.022;25.100;2022-09-29T00:51:54;98393.25;;;22.24
70969;BMP280;58630;43.022;25.100;2022-09-29T00:54:20;98392.81;;;22.22
70969;BMP280;58630;43.022;25.100;2022-09-29T00:56:47;98380.00;;;22.20
70969;BMP280;58630;43.022;25.100;2022-09-29T00:59:14;98389.78;;;22.20
70969;BMP280;58630;43.022;25.100;2022-09-29T01:01:41;98388.63;;;22.17
70969;BMP280;58630;43.022;25.100;2022-09-29T01:04:10;98384.47;;;22.16
70969;BMP280;58630;43.022;25.100;2022-09-29T01:06:39;98386.69;;;22.14
70969;BMP280;58630;43.022;25.100;2022-09-29T01:09:07;98384.81;;;22.15
70969;BMP280;58630;43.022;25.100;2022-09-29T01:11:33;98388.97;;;22.12
70969;BMP280;58630;43.022;25.100;2022-09-29T01:13:59;98388.16;;;22.12
70969;BMP280;58630;43.022;25.100;2022-09-29T01:16:31;98389.28;;;22.11
70969;BMP280;58630;43.022;25.100;2022-09-29T01:18:59;98388.16;;;22.08
70969;BMP280;58630;43.022;25.100;2022-09-29T01:39:29;98401.59;;;21.96
70969;BMP280;58630;43.022;25.100;2022-09-29T01:41:56;98398.50;;;21.94
70969;BMP280;58630;43.022;25.100;2022-09-29T01:46:53;98390.97;;;21.93
70969;BMP280;58630;43.022;25.100;2022-09-29T01:49:20;98400.38;;;21.90
70969;BMP280;58630;43.022;25.100;2022-09-29T01:51:52;98409.44;;;21.89
70969;BMP280;58630;43.022;25.100;2022-09-29T01:54:19;98408.25;;;21.87
70969;BMP280;58630;43.022;25.100;2022-09-29T01:56:54;98415.78;;;21.85
70969;BMP280;58630;43.022;25.100;2022-09-29T01:59:23;98410.50;;;21.85
70969;BMP280;58630;43.022;25.100;2022-09-29T02:01:50;98411.63;;;21.84
70969;BMP280;58630;43.022;25.100;2022-09-29T02:04:26;98418.41;;;21.81
70969;BMP280;58630;43.022;25.100;2022-09-29T02:06:55;98416.09;;;21.80
70969;BMP280;58630;43.022;25.100;2022-09-29T02:09:22;98418.72;;;21.80
70969;BMP280;58630;43.022;25.100;2022-09-29T02:11:50;98415.69;;;21.78
70969;BMP280;58630;43.022;25.100;2022-09-29T02:14:21;98418.69;;;21.76
70969;BMP280;58630;43.022;25.100;2022-09-29T02:16:48;98425.81;;;21.73
70969;BMP280;58630;43.022;25.100;2022-09-29T02:19:19;98434.53;;;21.73
70969;BMP280;58630;43.022;25.100;2022-09-29T02:21:47;98442.06;;;21.71
70969;BMP280;58630;43.022;25.100;2022-09-29T02:24:12;98439.75;;;21.70
70969;BMP280;58630;43.022;25.100;2022-09-29T02:26:37;98442.00;;;21.68
70969;BMP280;58630;43.022;25.100;2022-09-29T02:29:04;98455.22;;;21.68
70969;BMP280;58630;43.022;25.100;2022-09-29T02:31:30;98458.97;;;21.67
70969;BMP280;58630;43.022;25.100;2022-09-29T02:33:56;98449.09;;;21.64
70969;BMP280;58630;43.022;25.100;2022-09-29T02:41:37;98458.88;;;21.60
70969;BMP280;58630;43.022;25.100;2022-09-29T02:49:32;98451.56;;;21.53
70969;BMP280;58630;43.022;25.100;2022-09-29T03:00:27;98456.41;;;21.48
70969;BMP280;58630;43.022;25.100;2022-09-29T03:02:52;98460.94;;;21.47
70969;BMP280;58630;43.022;25.100;2022-09-29T03:05:18;98453.78;;;21.48
70969;BMP280;58630;43.022;25.100;2022-09-29T03:07:44;98447.28;;;21.45
70969;BMP280;58630;43.022;25.100;2022-09-29T03:10:10;98461.25;;;21.42
70969;BMP280;58630;43.022;25.100;2022-09-29T03:12:37;98458.19;;;21.40
70969;BMP280;58630;43.022;25.100;2022-09-29T03:15:03;98455.16;;;21.42
70969;BMP280;58630;43.022;25.100;2022-09-29T03:17:28;98455.44;;;21.37
70969;BMP280;58630;43.022;25.100;2022-09-29T03:19:53;98455.44;;;21.37
70969;BMP280;58630;43.022;25.100;2022-09-29T03:22:19;98463.75;;;21.35
70969;BMP280;58630;43.022;25.100;2022-09-29T03:24:44;98462.22;;;21.34
70969;BMP280;58630;43.022;25.100;2022-09-29T03:27:09;98467.50;;;21.34
70969;BMP280;58630;43.022;25.100;2022-09-29T03:29:35;98466.34;;;21.32
70969;BMP280;58630;43.022;25.100;2022-09-29T03:32:00;98470.09;;;21.31
70969;BMP280;58630;43.022;25.100;2022-09-29T03:34:26;98464.75;;;21.27
70969;BMP280;58630;43.022;25.100;2022-09-29T03:36:51;98459.47;;;21.27
70969;BMP280;58630;43.022;25.100;2022-09-29T03:39:16;98462.47;;;21.26
70969;BMP280;58630;43.022;25.100;2022-09-29T03:41:42;98458.31;;;21.25
70969;BMP280;58630;43.022;25.100;2022-09-29T03:44:07;98456.00;;;21.23
70969;BMP280;58630;43.022;25.100;2022-09-29T03:46:32;98463.19;;;21.23
70969;BMP280;58630;43.022;25.100;2022-09-29T03:48:57;98465.41;;;21.21
70969;BMP280;58630;43.022;25.100;2022-09-29T03:51:23;98463.88;;;21.20
70969;BMP280;58630;43.022;25.100;2022-09-29T03:53:48;98457.06;;;21.19
70969;BMP280;58630;43.022;25.100;2022-09-29T03:56:13;98456.66;;;21.17
70969;BMP280;58630;43.022;25.100;2022-09-29T03:58:39;98457.78;;;21.16
70969;BMP280;58630;43.022;25.100;2022-09-29T04:01:04;98456.22;;;21.15
70969;BMP280;58630;43.022;25.100;2022-09-29T04:03:30;98463.75;;;21.13
70969;BMP280;58630;43.022;25.100;2022-09-29T04:05:55;98457.72;;;21.13
70969;BMP280;58630;43.022;25.100;2022-09-29T04:08:20;98459.94;;;21.11
70969;BMP280;58630;43.022;25.100;2022-09-29T04:10:46;98452.38;;;21.09
70969;BMP280;58630;43.022;25.100;2022-09-29T04:13:11;98455.69;;;21.06
70969;BMP280;58630;43.022;25.100;2022-09-29T04:15:37;98454.19;;;21.05
70969;BMP280;58630;43.022;25.100;2022-09-29T04:18:02;98455.63;;;21.03
70969;BMP280;58630;43.022;25.100;2022-09-29T04:20:28;98471.84;;;21.01
70969;BMP280;58630;43.022;25.100;2022-09-29T04:22:53;98466.91;;;21.00
70969;BMP280;58630;43.022;25.100;2022-09-29T04:25:18;98465.75;;;20.97
70969;BMP280;58630;43.022;25.100;2022-09-29T04:27:44;98482.34;;;20.98
70969;BMP280;58630;43.022;25.100;2022-09-29T04:30:09;98483.03;;;20.95
70969;BMP280;58630;43.022;25.100;2022-09-29T04:32:34;98477.75;;;20.95
70969;BMP280;58630;43.022;25.100;2022-09-29T04:35:00;98488.69;;;20.93
70969;BMP280;58630;43.022;25.100;2022-09-29T04:37:25;98487.56;;;20.94
70969;BMP280;58630;43.022;25.100;2022-09-29T04:39:50;98489.00;;;20.92
70969;BMP280;58630;43.022;25.100;2022-09-29T04:42:18;98490.91;;;20.91
70969;BMP280;58630;43.022;25.100;2022-09-29T04:44:44;98501.81;;;20.90
70969;BMP280;58630;43.022;25.100;2022-09-29T04:47:09;98509.31;;;20.88
70969;BMP280;58630;43.022;25.100;2022-09-29T04:49:34;98508.53;;;20.87
70969;BMP280;58630;43.022;25.100;2022-09-29T04:52:00;98507.00;;;20.86
70969;BMP280;58630;43.022;25.100;2022-09-29T04:54:28;98511.53;;;20.86
70969;BMP280;58630;43.022;25.100;2022-09-29T04:56:54;98509.25;;;20.84
70969;BMP280;58630;43.022;25.100;2022-09-29T04:59:19;98512.22;;;20.83
70969;BMP280;58630;43.022;25.100;2022-09-29T05:01:44;98516.72;;;20.82
70969;BMP280;58630;43.022;25.100;2022-09-29T05:04:09;98512.59;;;20.81
70969;BMP280;58630;43.022;25.100;2022-09-29T05:06:37;98513.34;;;20.82
70969;BMP280;58630;43.022;25.100;2022-09-29T05:09:04;98515.97;;;20.82
70969;BMP280;58630;43.022;25.100;2022-09-29T05:11:29;98512.59;;;20.81
70969;BMP280;58630;43.022;25.100;2022-09-29T05:13:54;98512.16;;;20.79
70969;BMP280;58630;43.022;25.100;2022-09-29T05:16:20;98521.19;;;20.78
70969;BMP280;58630;43.022;25.100;2022-09-29T05:18:45;98521.97;;;20.79
70969;BMP280;58630;43.022;25.100;2022-09-29T05:21:10;98514.78;;;20.79
70969;BMP280;58630;43.022;25.100;2022-09-29T05:23:36;98524.59;;;20.79
70969;BMP280;58630;43.022;25.100;2022-09-29T05:26:02;98523.09;;;20.78
70969;BMP280;58630;43.022;25.100;2022-09-29T05:28:27;98524.19;;;20.77
70969;BMP280;58630;43.022;25.100;2022-09-29T05:30:53;98520.03;;;20.76
70969;BMP280;58630;43.022;25.100;2022-09-29T05:33:18;98517.38;;;20.76
70969;BMP280;58630;43.022;25.100;2022-09-29T05:35:43;98506.81;;;20.76
70969;BMP280;58630;43.022;25.100;2022-09-29T05:38:08;98501.53;;;20.76
70969;BMP280;58630;43.022;25.100;2022-09-29T05:40:34;98493.94;;;20.74
70969;BMP280;58630;43.022;25.100;2022-09-29T05:43:01;98498.50;;;20.74
70969;BMP280;58630;43.022;25.100;2022-09-29T05:45:26;98505.63;;;20.73
70969;BMP280;58630;43.022;25.100;2022-09-29T05:47:51;98494.66;;;20.71
70969;BMP280;58630;43.022;25.100;2022-09-29T05:50:18;98497.28;;;20.71
70969;BMP280;58630;43.022;25.100;2022-09-29T05:52:44;98490.47;;;20.70
70969;BMP280;58630;43.022;25.100;2022-09-29T05:55:13;98492.38;;;20.70
70969;BMP280;58630;43.022;25.100;2022-09-29T05:57:38;98490.06;;;20.69
70969;BMP280;58630;43.022;25.100;2022-09-29T06:00:04;98496.88;;;20.70
70969;BMP280;58630;43.022;25.100;2022-09-29T06:02:30;98493.81;;;20.68
70969;BMP280;58630;43.022;25.100;2022-09-29T06:04:55;98499.09;;;20.68
70969;BMP280;58630;43.022;25.100;2022-09-29T06:07:20;98502.81;;;20.67
70969;BMP280;58630;43.022;25.100;2022-09-29T06:09:45;98508.09;;;20.67
70969;BMP280;58630;43.022;25.100;2022-09-29T06:12:11;98513.38;;;20.67
70969;BMP280;58630;43.022;25.100;2022-09-29T06:14:36;98501.34;;;20.66
70969;BMP280;58630;43.022;25.100;2022-09-29T06:17:02;98502.44;;;20.65
70969;BMP280;58630;43.022;25.100;2022-09-29T06:19:27;98513.75;;;20.65
70969;BMP280;58630;43.022;25.100;2022-09-29T06:21:52;98515.66;;;20.65
70969;BMP280;58630;43.022;25.100;2022-09-29T06:24:17;98511.91;;;20.66
70969;BMP280;58630;43.022;25.100;2022-09-29T06:26:43;98502.44;;;20.65
70969;BMP280;58630;43.022;25.100;2022-09-29T06:29:08;98478.69;;;20.65
70969;BMP280;58630;43.022;25.100;2022-09-29T06:31:33;98482.88;;;20.66
70969;BMP280;58630;43.022;25.100;2022-09-29T06:34:00;98490.00;;;20.65
70969;BMP280;58630;43.022;25.100;2022-09-29T06:36:27;98501.34;;;20.66
70969;BMP280;58630;43.022;25.100;2022-09-29T06:39:12;98505.47;;;20.67
70969;BMP280;58630;43.022;25.100;2022-09-29T06:41:38;98489.63;;;20.67
70969;BMP280;58630;43.022;25.100;2022-09-29T06:44:03;98480.22;;;20.66
70969;BMP280;58630;43.022;25.100;2022-09-29T06:46:29;98471.16;;;20.67
70969;BMP280;58630;43.022;25.100;2022-09-29T06:48:54;98472.69;;;20.68
70969;BMP280;58630;43.022;25.100;2022-09-29T06:51:20;98471.59;;;20.69
70969;BMP280;58630;43.022;25.100;2022-09-29T06:53:49;98468.94;;;20.69
70969;BMP280;58630;43.022;25.100;2022-09-29T06:56:14;98470.47;;;20.70
70969;BMP280;58630;43.022;25.100;2022-09-29T06:58:39;98478.06;;;20.71
70969;BMP280;58630;43.022;25.100;2022-09-29T07:01:05;98479.59;;;20.72
70969;BMP280;58630;43.022;25.100;2022-09-29T07:03:30;98474.31;;;20.72
70969;BMP280;58630;43.022;25.100;2022-09-29T07:05:56;98473.94;;;20.73
70969;BMP280;58630;43.022;25.100;2022-09-29T07:08:21;98471.31;;;20.73
70969;BMP280;58630;43.022;25.100;2022-09-29T07:10:46;98475.47;;;20.74
70969;BMP280;58630;43.022;25.100;2022-09-29T07:13:12;98484.16;;;20.75
70969;BMP280;58630;43.022;25.100;2022-09-29T07:15:38;98481.19;;;20.76
70969;BMP280;58630;43.022;25.100;2022-09-29T07:18:03;98478.94;;;20.78
70969;BMP280;58630;43.022;25.100;2022-09-29T07:20:29;98477.84;;;20.79
70969;BMP280;58630;43.022;25.100;2022-09-29T07:22:55;98476.28;;;20.78
70969;BMP280;58630;43.022;25.100;2022-09-29T07:25:21;98479.38;;;20.80
70969;BMP280;58630;43.022;25.100;2022-09-29T07:27:47;98477.84;;;20.79
70969;BMP280;58630;43.022;25.100;2022-09-29T07:30:13;98475.97;;;20.80
70969;BMP280;58630;43.022;25.100;2022-09-29T07:32:38;98476.72;;;20.80
70969;BMP280;58630;43.022;25.100;2022-09-29T07:35:04;98480.91;;;20.81
70969;BMP280;58630;43.022;25.100;2022-09-29T07:37:30;98478.25;;;20.81
70969;BMP280;58630;43.022;25.100;2022-09-29T07:39:55;98473.34;;;20.80
70969;BMP280;58630;43.022;25.100;2022-09-29T07:42:20;98469.91;;;20.79
70969;BMP280;58630;43.022;25.100;2022-09-29T07:44:46;98478.94;;;20.78
70969;BMP280;58630;43.022;25.100;2022-09-29T07:47:11;98476.28;;;20.78
70969;BMP280;58630;43.022;25.100;2022-09-29T07:49:37;98477.84;;;20.79
70969;BMP280;58630;43.022;25.100;2022-09-29T07:52:03;98475.19;;;20.79
70969;BMP280;58630;43.022;25.100;2022-09-29T07:54:28;98478.63;;;20.80
70969;BMP280;58630;43.022;25.100;2022-09-29T07:56:55;98478.63;;;20.80
70969;BMP280;58630;43.022;25.100;2022-09-29T07:59:20;98479.38;;;20.80
70969;BMP280;58630;43.022;25.100;2022-09-29T08:01:46;98475.63;;;20.81
70969;BMP280;58630;43.022;25.100;2022-09-29T08:04:11;98479.78;;;20.82
70969;BMP280;58630;43.022;25.100;2022-09-29T08:06:36;98479.00;;;20.82
70969;BMP280;58630;43.022;25.100;2022-09-29T08:09:02;98490.34;;;20.82
70969;BMP280;58630;43.022;25.100;2022-09-29T08:11:27;98491.88;;;20.83
70969;BMP280;58630;43.022;25.100;2022-09-29T08:13:53;98487.34;;;20.84
70969;BMP280;58630;43.022;25.100;2022-09-29T08:16:18;98482.06;;;20.84
70969;BMP280;58630;43.022;25.100;2022-09-29T08:18:43;98494.16;;;20.85
70969;BMP280;58630;43.022;25.100;2022-09-29T08:21:09;98484.38;;;20.85
70969;BMP280;58630;43.022;25.100;2022-09-29T08:23:36;98485.88;;;20.86
70969;BMP280;58630;43.022;25.100;2022-09-29T08:26:05;98479.84;;;20.86
70969;BMP280;58630;43.022;25.100;2022-09-29T08:28:32;98479.50;;;20.87
70969;BMP280;58630;43.022;25.100;2022-09-29T08:33:50;98471.56;;;20.87
70969;BMP280;58630;43.022;25.100;2022-09-29T08:36:16;98473.88;;;20.89
70969;BMP280;58630;43.022;25.100;2022-09-29T08:38:42;98470.47;;;20.88
70969;BMP280;58630;43.022;25.100;2022-09-29T08:41:14;98469.38;;;20.89
70969;BMP280;58630;43.022;25.100;2022-09-29T08:43:43;98469.38;;;20.89
70969;BMP280;58630;43.022;25.100;2022-09-29T08:46:10;98469.38;;;20.89
70969;BMP280;58630;43.022;25.100;2022-09-29T08:48:40;98470.88;;;20.90
70969;BMP280;58630;43.022;25.100;2022-09-29T08:51:11;98469.78;;;20.91
70969;BMP280;58630;43.022;25.100;2022-09-29T08:53:38;98473.16;;;20.92
70969;BMP280;58630;43.022;25.100;2022-09-29T08:56:12;98470.19;;;20.93
70969;BMP280;58630;43.022;25.100;2022-09-29T08:58:39;98471.72;;;20.94
70969;BMP280;58630;43.022;25.100;2022-09-29T09:01:24;98476.63;;;20.96
70969;BMP280;58630;43.022;25.100;2022-09-29T09:22:13;98473.63;;;21.16
70969;BMP280;58630;43.022;25.100;2022-09-29T09:24:44;98464.59;;;21.17
70969;BMP280;58630;43.022;25.100;2022-09-29T09:27:13;98463.88;;;21.20
70969;BMP280;58630;43.022;25.100;2022-09-29T09:29:41;98463.50;;;21.22
70969;BMP280;58630;43.022;25.100;2022-09-29T09:32:11;98463.19;;;21.23
70969;BMP280;58630;43.022;25.100;2022-09-29T09:37:26;98464.00;;;21.27
70969;BMP280;58630;43.022;25.100;2022-09-29T09:41:23;98467.31;;;21.46
70969;BMP280;58630;43.022;25.100;2022-09-29T09:43:50;98465.59;;;21.57
70969;BMP280;58630;43.022;25.100;2022-09-29T09:48:44;98464.72;;;21.72
70969;BMP280;58630;43.022;25.100;2022-09-29T09:51:29;98455.72;;;21.76
70969;BMP280;58630;43.022;25.100;2022-09-29T09:53:57;98455.41;;;21.81
70969;BMP280;58630;43.022;25.100;2022-09-29T10:01:48;98461.63;;;21.92
70969;BMP280;58630;43.022;25.100;2022-09-29T10:04:16;98459.78;;;21.96
70969;BMP280;58630;43.022;25.100;2022-09-29T10:06:42;98461.69;;;21.99
70969;BMP280;58630;43.022;25.100;2022-09-29T10:09:13;98458.41;;;22.06
70969;BMP280;58630;43.022;25.100;2022-09-29T10:11:46;98459.94;;;22.07
70969;BMP280;58630;43.022;25.100;2022-09-29T10:14:20;98465.25;;;22.10
70969;BMP280;58630;43.022;25.100;2022-09-29T10:16:50;98456.25;;;22.15
70969;BMP280;58630;43.022;25.100;2022-09-29T10:19:22;98459.28;;;22.17
70969;BMP280;58630;43.022;25.100;2022-09-29T10:21:54;98452.94;;;22.21
70969;BMP280;58630;43.022;25.100;2022-09-29T10:24:38;98452.59;;;22.26
70969;BMP280;58630;43.022;25.100;2022-09-29T10:27:06;98450.03;;;22.33
70969;BMP280;58630;43.022;25.100;2022-09-29T10:29:41;98456.50;;;22.35
70969;BMP280;58630;43.022;25.100;2022-09-29T10:34:33;98444.47;;;22.41
70969;BMP280;58630;43.022;25.100;2022-09-29T10:37:00;98441.56;;;22.50
70969;BMP280;58630;43.022;25.100;2022-09-29T10:39:42;98434.34;;;22.50
70969;BMP280;58630;43.022;25.100;2022-09-29T10:42:15;98429.47;;;22.49
70969;BMP280;58630;43.022;25.100;2022-09-29T10:44:41;98439.31;;;22.52
70969;BMP280;58630;43.022;25.100;2022-09-29T10:47:12;98429.84;;;22.51
70969;BMP280;58630;43.022;25.100;2022-09-29T10:49:38;98431.00;;;22.53
70969;BMP280;58630;43.022;25.100;2022-09-29T10:52:05;98438.63;;;22.58
70969;BMP280;58630;43.022;25.100;2022-09-29T10:54:34;98437.09;;;22.57
70969;BMP280;58630;43.022;25.100;2022-09-29T10:57:10;98437.88;;;22.61
70969;BMP280;58630;43.022;25.100;2022-09-29T10:59:49;98433.81;;;22.67
70969;BMP280;58630;43.022;25.100;2022-09-29T11:02:20;98423.72;;;22.79
70969;BMP280;58630;43.022;25.100;2022-09-29T11:04:46;98417.00;;;22.92
70969;BMP280;58630;43.022;25.100;2022-09-29T11:07:12;98419.72;;;22.99
70969;BMP280;58630;43.022;25.100;2022-09-29T11:09:41;98414.91;;;23.12
70969;BMP280;58630;43.022;25.100;2022-09-29T11:14:51;98411.53;;;23.15
70969;BMP280;58630;43.022;25.100;2022-09-29T11:20:12;98406.69;;;23.24
70969;BMP280;58630;43.022;25.100;2022-09-29T11:22:41;98410.53;;;23.36
70969;BMP280;58630;43.022;25.100;2022-09-29T11:25:31;98410.63;;;23.47
70969;BMP280;58630;43.022;25.100;2022-09-29T11:30:24;98416.03;;;23.64
70969;BMP280;58630;43.022;25.100;2022-09-29T11:38:00;98415.06;;;24.00
70969;BMP280;58630;43.022;25.100;2022-09-29T11:40:34;98418.19;;;24.19
70969;BMP280;58630;43.022;25.100;2022-09-29T11:45:41;98423.22;;;24.45
70969;BMP280;58630;43.022;25.100;2022-09-29T12:06:09;98418.69;;;25.18
70969;BMP280;58630;43.022;25.100;2022-09-29T12:11:14;98428.22;;;25.05
70969;BMP280;58630;43.022;25.100;2022-09-29T12:13:43;98428.56;;;25.18
70969;BMP280;58630;43.022;25.100;2022-09-29T12:16:17;98427.03;;;25.27
70969;BMP280;58630;43.022;25.100;2022-09-29T12:18:46;98425.91;;;25.28
70969;BMP280;58630;43.022;25.100;2022-09-29T12:21:12;98429.25;;;25.46
70969;BMP280;58630;43.022;25.100;2022-09-29T12:23:39;98434.22;;;25.44
70969;BMP280;58630;43.022;25.100;2022-09-29T12:26:12;98432.34;;;25.44
70969;BMP280;58630;43.022;25.100;2022-09-29T12:28:43;98437.63;;;25.55
70969;BMP280;58630;43.022;25.100;2022-09-29T12:31:18;98433.78;;;25.69
70969;BMP280;58630;43.022;25.100;2022-09-29T12:33:49;98432.63;;;25.77
70969;BMP280;58630;43.022;25.100;2022-09-29T12:39:30;98419.09;;;26.26
70969;BMP280;58630;43.022;25.100;2022-09-29T12:44:35;98415.03;;;26.65
70969;BMP280;58630;43.022;25.100;2022-09-29T12:52:24;98420.56;;;26.84
70969;BMP280;58630;43.022;25.100;2022-09-29T12:54:52;98419.53;;;27.15
70969;BMP280;58630;43.022;25.100;2022-09-29T12:57:29;98419.03;;;27.27
70969;BMP280;58630;43.022;25.100;2022-09-29T12:59:57;98424.16;;;27.14
70969;BMP280;58630;43.022;25.100;2022-09-29T13:15:12;98412.84;;;29.17
70969;BMP280;58630;43.022;25.100;2022-09-29T13:23:02;98424.56;;;29.61
70969;BMP280;58630;43.022;25.100;2022-09-29T13:25:53;98417.13;;;29.88
70969;BMP280;58630;43.022;25.100;2022-09-29T13:28:30;98412.88;;;30.06
70969;BMP280;58630;43.022;25.100;2022-09-29T13:31:13;98406.63;;;30.13
70969;BMP280;58630;43.022;25.100;2022-09-29T13:33:39;98406.94;;;30.30
70969;BMP280;58630;43.022;25.100;2022-09-29T13:36:05;98401.25;;;30.28
70969;BMP280;58630;43.022;25.100;2022-09-29T13:38:33;98406.28;;;29.75
70969;BMP280;58630;43.022;25.100;2022-09-29T13:41:14;98398.63;;;29.58
70969;BMP280;58630;43.022;25.100;2022-09-29T13:51:47;98411.16;;;29.61
70969;BMP280;58630;43.022;25.100;2022-09-29T13:54:36;98412.31;;;29.64
70969;BMP280;58630;43.022;25.100;2022-09-29T13:59:36;98421.72;;;29.52
70969;BMP280;58630;43.022;25.100;2022-09-29T14:02:17;98422.56;;;29.49
70969;BMP280;58630;43.022;25.100;2022-09-29T14:04:44;98423.38;;;29.46
70969;BMP280;58630;43.022;25.100;2022-09-29T14:07:13;98418.06;;;29.24
70969;BMP280;58630;43.022;25.100;2022-09-29T14:09:55;98423.31;;;29.08
70969;BMP280;58630;43.022;25.100;2022-09-29T14:12:22;98420.31;;;29.06
70969;BMP280;58630;43.022;25.100;2022-09-29T14:14:52;98424.25;;;28.98
70969;BMP280;58630;43.022;25.100;2022-09-29T14:20:01;98415.13;;;29.18
70969;BMP280;58630;43.022;25.100;2022-09-29T14:24:54;98423.75;;;29.64
70969;BMP280;58630;43.022;25.100;2022-09-29T14:32:21;98421.81;;;29.84
70969;BMP280;58630;43.022;25.100;2022-09-29T14:34:47;98426.63;;;29.73
70969;BMP280;58630;43.022;25.100;2022-09-29T14:37:18;98435.72;;;29.60
70969;BMP280;58630;43.022;25.100;2022-09-29T14:39:45;98432.31;;;29.56
70969;BMP280;58630;43.022;25.100;2022-09-29T14:42:30;98428.09;;;29.58
70969;BMP280;58630;43.022;25.100;2022-09-29T14:44:56;98430.91;;;29.51
70969;BMP280;58630;43.022;25.100;2022-09-29T15:03:27;98453.63;;;28.79
70969;BMP280;58630;43.022;25.100;2022-09-29T15:06:09;98449.22;;;28.69
70969;BMP280;58630;43.022;25.100;2022-09-29T15:08:38;98450.16;;;28.59
70969;BMP280;58630;43.022;25.100;2022-09-29T15:11:21;98460.19;;;28.51
70969;BMP280;58630;43.022;25.100;2022-09-29T15:13:50;98457.97;;;28.46
70969;BMP280;58630;43.022;25.100;2022-09-29T15:16:19;98458.06;;;28.40
70969;BMP280;58630;43.022;25.100;2022-09-29T15:24:20;98457.94;;;28.20
70969;BMP280;58630;43.022;25.100;2022-09-29T15:26:51;98460.69;;;28.13
70969;BMP280;58630;43.022;25.100;2022-09-29T15:29:17;98463.06;;;28.08
70969;BMP280;58630;43.022;25.100;2022-09-29T15:31:43;98456.31;;;28.00
70969;BMP280;58630;43.022;25.100;2022-09-29T15:34:16;98461.34;;;27.95
70969;BMP280;58630;43.022;25.100;2022-09-29T15:36:42;98462.19;;;27.88
70969;BMP280;58630;43.022;25.100;2022-09-29T15:42:09;98461.91;;;27.79
70969;BMP280;58630;43.022;25.100;2022-09-29T15:47:25;98459.00;;;27.67
70969;BMP280;58630;43.022;25.100;2022-09-29T15:49:51;98472.81;;;27.62
70969;BMP280;58630;43.022;25.100;2022-09-29T15:52:38;98464.75;;;27.65
70969;BMP280;58630;43.022;25.100;2022-09-29T15:55:10;98470.09;;;27.65
70969;BMP280;58630;43.022;25.100;2022-09-29T16:00:40;98487.28;;;27.61
70969;BMP280;58630;43.022;25.100;2022-09-29T16:05:27;98499.50;;;27.62
70969;BMP280;58630;43.022;25.100;2022-09-29T16:08:12;98502.94;;;27.59
70969;BMP280;58630;43.022;25.100;2022-09-29T16:10:46;98505.66;;;27.55
70969;BMP280;58630;43.022;25.100;2022-09-29T16:13:19;98517.47;;;27.51
70969;BMP280;58630;43.022;25.100;2022-09-29T16:15:48;98520.94;;;27.52
70969;BMP280;58630;43.022;25.100;2022-09-29T16:18:24;98518.66;;;27.50
70969;BMP280;58630;43.022;25.100;2022-09-29T16:20:53;98521.72;;;27.49
70969;BMP280;58630;43.022;25.100;2022-09-29T16:28:35;98531.72;;;27.41
70969;BMP280;58630;43.022;25.100;2022-09-29T16:31:05;98537.84;;;27.38
70969;BMP280;58630;43.022;25.100;2022-09-29T16:33:34;98545.47;;;27.36
70969;BMP280;58630;43.022;25.100;2022-09-29T16:36:19;98548.88;;;27.37
70969;BMP280;58630;43.022;25.100;2022-09-29T16:38:45;98547.00;;;27.34
70969;BMP280;58630;43.022;25.100;2022-09-29T16:43:40;98563.47;;;27.29
70969;BMP280;58630;43.022;25.100;2022-09-29T16:46:06;98561.59;;;27.26
70969;BMP280;58630;43.022;25.100;2022-09-29T16:48:38;98562.38;;;27.23
70969;BMP280;58630;43.022;25.100;2022-09-29T16:51:07;98567.31;;;27.21
70969;BMP280;58630;43.022;25.100;2022-09-29T16:53:33;98572.28;;;27.19
70969;BMP280;58630;43.022;25.100;2022-09-29T16:56:08;98577.25;;;27.17
70969;BMP280;58630;43.022;25.100;2022-09-29T16:58:34;98574.97;;;27.15
70969;BMP280;58630;43.022;25.100;2022-09-29T17:01:02;98579.19;;;27.13
70969;BMP280;58630;43.022;25.100;2022-09-29T17:03:27;98583.78;;;27.09
70969;BMP280;58630;43.022;25.100;2022-09-29T17:05:54;98584.19;;;27.08
70969;BMP280;58630;43.022;25.100;2022-09-29T17:08:21;98579.59;;;27.08
70969;BMP280;58630;43.022;25.100;2022-09-29T17:10:50;98581.88;;;27.06
70969;BMP280;58630;43.022;25.100;2022-09-29T17:13:16;98586.84;;;27.04
70969;BMP280;58630;43.022;25.100;2022-09-29T17:15:45;98595.25;;;27.03
70969;BMP280;58630;43.022;25.100;2022-09-29T17:18:11;98607.44;;;27.00
70969;BMP280;58630;43.022;25.100;2022-09-29T17:20:40;98605.19;;;26.99
70969;BMP280;58630;43.022;25.100;2022-09-29T17:23:05;98614.72;;;26.96
70969;BMP280;58630;43.022;25.100;2022-09-29T17:25:31;98619.69;;;26.94